This is the latest recevied weather packets stored in our database for station/object KSRR. If no packets are shown the sender has not sent any weather packets the latest 10 day(s).
| Time | Temp. | Humidity | Pressure | Rain* | Wind** | Luminosity | Snow |
|---|---|---|---|---|---|---|---|
| 1777889018 | 11.67° C | 54% | 1017.6 hPa | - | - | - | - |
| 1777888422 | 11.67° C | 50% | 1017.9 hPa | - | - | - | - |
| 1777887819 | 11.67° C | 50% | 1017.9 hPa | - | - | - | - |
| 1777887219 | 12.78° C | 47% | 1018.3 hPa | - | - | - | - |
| 1777886622 | 12.78° C | 47% | 1018.3 hPa | - | - | - | - |
| 1777886020 | 10.56° C | 57% | 1018.3 hPa | - | - | - | - |
| 1777885423 | 10.56° C | 57% | 1018.3 hPa | - | - | - | - |
| 1777884819 | 10.56° C | 57% | 1018.6 hPa | - | - | - | - |
| 1777884218 | 10.56° C | 57% | 1018.6 hPa | - | - | - | - |
| 1777883620 | 10° C | 61% | 1018.6 hPa | - | - | - | - |
| 1777883020 | 10° C | 61% | 1018.6 hPa | - | - | - | - |
| 1777882419 | 11.67° C | 54% | 1019 hPa | - | - | - | - |
| 1777881823 | 11.67° C | 54% | 1019 hPa | - | - | - | - |
| 1777881220 | 11.67° C | 54% | 1019.3 hPa | - | - | - | - |
| 1777880621 | 11.67° C | 54% | 1019.3 hPa | - | - | - | - |
| 1777880023 | 11.67° C | 54% | 1020 hPa | - | - | - | - |
| 1777879416 | 10° C | 61% | 1020 hPa | - | - | - | - |
| 1777878817 | 10° C | 61% | 1020 hPa | - | - | - | - |
| 1777878220 | 10° C | 61% | 1020 hPa | - | - | - | - |
| 1777877622 | 11.67° C | 54% | 1020 hPa | - | - | - | - |
| 1777877019 | 11.67° C | 54% | 1020 hPa | - | - | - | - |
| 1777876424 | 11.67° C | 54% | 1020 hPa | - | - | - | - |
| 1777875817 | 11.67° C | 54% | 1020 hPa | - | - | - | - |
| 1777875218 | 11.67° C | 54% | 1020.3 hPa | - | - | - | - |
| 1777874621 | 11.67° C | 54% | 1020.3 hPa | - | - | - | - |
* Rain since midnight (hover to see other rain measurements)
** Current wind speed in m/s (hover to see current wind gust speed)